Time;durP1;ratioP1;P1;durP2;ratioP2;P2;SDS_P1;SDS_P2;PMS_P1;PMS_P2;Temp;Humidity;BMP_temperature;BMP_pressure;BME280_temperature;BME280_humidity;BME280_pressure;Samples;Min_cycle;Max_cycle;Signal;HPM_P1;HPM_P2
2021/09/03 00:01:49;;;;;;;15.02;11.00;;;15.30;92.50;;;;;;6183692;23;20017;-80
2021/09/03 00:04:15;;;;;;;15.55;11.15;;;15.30;92.60;;;;;;6185981;23;20063;-79
2021/09/03 00:06:40;;;;;;;14.70;11.02;;;15.30;92.50;;;;;;6183043;23;20017;-80
2021/09/03 00:09:06;;;;;;;17.20;11.70;;;15.20;92.30;;;;;;6184273;23;20071;-80
2021/09/03 00:11:31;;;;;;;18.70;11.30;;;15.20;92.30;;;;;;6183894;23;20069;-80
2021/09/03 00:13:57;;;;;;;14.95;11.43;;;15.10;92.20;;;;;;6183177;23;20010;-79
2021/09/03 00:16:23;;;;;;;16.63;11.07;;;15.10;92.40;;;;;;6183631;23;20016;-80
2021/09/03 00:18:48;;;;;;;17.33;11.68;;;15.10;92.10;;;;;;6184832;23;20032;-80
2021/09/03 00:21:14;;;;;;;15.55;11.07;;;15.00;92.20;;;;;;6182652;23;20480;-80
2021/09/03 00:23:40;;;;;;;13.80;10.43;;;15.00;92.00;;;;;;6183326;23;20028;-80
2021/09/03 00:26:05;;;;;;;15.57;11.13;;;15.00;92.20;;;;;;6184143;23;20311;-80
2021/09/03 00:28:31;;;;;;;17.27;11.35;;;14.90;92.30;;;;;;6184229;23;20441;-79
2021/09/03 00:30:57;;;;;;;15.13;11.25;;;14.90;92.40;;;;;;6183874;23;20025;-80
2021/09/03 00:33:22;;;;;;;16.85;11.20;;;14.80;92.40;;;;;;6183263;23;20059;-80
2021/09/03 00:35:48;;;;;;;16.90;10.75;;;14.80;92.40;;;;;;6184929;23;20387;-80
2021/09/03 00:38:13;;;;;;;16.33;11.02;;;14.80;92.60;;;;;;6183777;23;20397;-80
2021/09/03 00:40:39;;;;;;;15.50;11.15;;;14.80;92.50;;;;;;6182111;23;20050;-80
2021/09/03 00:43:05;;;;;;;16.88;10.90;;;14.70;92.40;;;;;;6183976;23;20021;-80
2021/09/03 00:45:30;;;;;;;15.38;11.55;;;14.70;92.60;;;;;;6183477;23;20017;-79
2021/09/03 00:47:56;;;;;;;15.13;11.50;;;14.70;92.60;;;;;;6183046;23;20023;-80
2021/09/03 00:50:22;;;;;;;15.07;10.98;;;14.70;92.70;;;;;;6185712;23;20017;-80
2021/09/03 00:52:47;;;;;;;14.98;10.75;;;14.60;92.60;;;;;;6183364;23;20009;-80
2021/09/03 00:55:13;;;;;;;16.02;11.38;;;14.60;92.60;;;;;;6182838;23;20013;-80
2021/09/03 00:57:39;;;;;;;18.70;12.23;;;14.50;92.60;;;;;;6183805;23;20303;-79
2021/09/03 01:00:06;;;;;;;16.15;11.00;;;14.50;92.60;;;;;;6183737;23;20430;-79
2021/09/03 01:02:31;;;;;;;16.25;11.48;;;14.50;92.60;;;;;;6181757;23;20036;-80
2021/09/03 01:04:57;;;;;;;16.02;11.10;;;14.50;92.60;;;;;;6185359;23;20067;-80
2021/09/03 01:07:23;;;;;;;18.45;12.18;;;14.50;92.60;;;;;;6183508;23;20029;-80
2021/09/03 01:09:48;;;;;;;17.10;11.88;;;14.40;92.80;;;;;;6184024;23;20432;-80
2021/09/03 01:12:15;;;;;;;16.30;11.75;;;14.40;93.00;;;;;;6183372;23;20025;-80
2021/09/03 01:14:41;;;;;;;16.13;11.65;;;14.40;93.10;;;;;;6184770;23;20082;-80
2021/09/03 01:17:07;;;;;;;15.23;11.32;;;14.40;93.20;;;;;;6184075;23;20036;-80
2021/09/03 01:19:32;;;;;;;15.80;11.27;;;14.30;93.20;;;;;;6184255;23;20091;-80
2021/09/03 01:21:58;;;;;;;14.20;10.80;;;14.30;93.20;;;;;;6183255;23;20028;-80
2021/09/03 01:24:23;;;;;;;13.90;11.20;;;14.30;93.30;;;;;;6184307;23;20021;-79
2021/09/03 01:26:49;;;;;;;14.70;10.68;;;14.30;93.40;;;;;;6182898;23;20017;-79
2021/09/03 01:29:15;;;;;;;14.63;10.70;;;14.20;93.40;;;;;;6183390;23;20017;-80
2021/09/03 01:31:41;;;;;;;14.63;10.65;;;14.20;93.40;;;;;;6182276;23;20021;-80
2021/09/03 01:34:06;;;;;;;15.95;10.98;;;14.20;93.40;;;;;;6183705;23;20013;-80
2021/09/03 01:36:32;;;;;;;14.50;10.82;;;14.20;93.50;;;;;;6181932;23;20021;-80
2021/09/03 01:38:59;;;;;;;15.20;10.80;;;14.10;93.40;;;;;;6183355;23;20448;-80
2021/09/03 01:41:25;;;;;;;13.98;10.20;;;14.10;93.30;;;;;;6183290;23;20302;-80
2021/09/03 01:43:51;;;;;;;13.88;10.52;;;14.10;93.30;;;;;;6181847;23;20013;-80
2021/09/03 01:46:17;;;;;;;15.93;11.00;;;14.10;93.30;;;;;;6183406;23;20064;-80
2021/09/03 01:48:43;;;;;;;13.95;10.70;;;14.00;93.30;;;;;;6182969;23;20024;-80
2021/09/03 01:51:08;;;;;;;14.75;10.07;;;14.00;93.30;;;;;;6182216;23;20016;-80
2021/09/03 01:53:34;;;;;;;13.82;9.88;;;14.00;93.30;;;;;;6183052;23;20099;-80
2021/09/03 01:56:00;;;;;;;14.88;10.07;;;13.90;93.40;;;;;;6183345;23;20020;-80
2021/09/03 01:58:25;;;;;;;15.05;10.55;;;13.90;93.40;;;;;;6182554;23;20049;-80
2021/09/03 02:00:51;;;;;;;14.00;10.00;;;13.90;93.50;;;;;;6182712;23;20013;-80
2021/09/03 02:03:17;;;;;;;13.02;9.68;;;13.90;93.50;;;;;;6182998;23;20017;-80
2021/09/03 02:05:43;;;;;;;14.60;10.38;;;13.80;93.40;;;;;;6181930;23;20517;-80
2021/09/03 02:08:09;;;;;;;13.75;10.07;;;13.80;93.40;;;;;;6183033;23;20426;-79
2021/09/03 02:10:34;;;;;;;13.07;9.52;;;13.80;93.50;;;;;;6182373;23;20020;-79
2021/09/03 02:13:00;;;;;;;15.63;10.60;;;13.70;93.40;;;;;;6182081;23;20096;-79
2021/09/03 02:15:25;;;;;;;13.80;9.27;;;13.70;93.50;;;;;;6185028;23;20048;-80
2021/09/03 02:17:51;;;;;;;12.88;9.35;;;13.70;93.60;;;;;;6182830;23;20021;-80
2021/09/03 02:20:17;;;;;;;14.85;9.75;;;13.70;93.30;;;;;;6181783;23;20017;-80
2021/09/03 02:22:42;;;;;;;13.85;9.95;;;13.70;93.20;;;;;;6182021;23;20063;-80
2021/09/03 02:25:08;;;;;;;14.18;10.25;;;13.60;93.30;;;;;;6183141;23;20041;-80
2021/09/03 02:27:34;;;;;;;13.90;10.27;;;13.60;93.50;;;;;;6183742;23;20141;-80
2021/09/03 02:30:00;;;;;;;13.77;9.82;;;13.60;93.50;;;;;;6183210;23;20100;-79
2021/09/03 02:32:25;;;;;;;12.25;9.20;;;13.60;93.50;;;;;;6184987;23;20337;-80
2021/09/03 02:34:51;;;;;;;13.70;9.70;;;13.50;93.40;;;;;;6181664;23;20021;-80
2021/09/03 02:37:16;;;;;;;14.45;10.05;;;13.50;93.50;;;;;;6181632;23;20032;-80
2021/09/03 02:39:42;;;;;;;13.43;9.60;;;13.50;93.70;;;;;;6181760;23;20024;-80
2021/09/03 02:42:08;;;;;;;13.95;9.95;;;13.50;93.80;;;;;;6181357;23;20378;-80
2021/09/03 02:44:34;;;;;;;13.20;9.63;;;13.50;93.70;;;;;;6182865;23;20009;-79
2021/09/03 02:47:00;;;;;;;12.95;9.68;;;13.40;93.60;;;;;;6182375;23;20028;-79
2021/09/03 02:49:25;;;;;;;13.80;9.80;;;13.40;93.70;;;;;;6183256;23;20009;-80
2021/09/03 02:51:51;;;;;;;12.30;9.25;;;13.40;93.70;;;;;;6182928;23;20114;-80
2021/09/03 02:54:16;;;;;;;13.35;9.57;;;13.40;93.70;;;;;;6182178;23;20425;-80
2021/09/03 02:56:42;;;;;;;13.77;9.18;;;13.40;93.60;;;;;;6182690;23;20091;-80
2021/09/03 02:59:07;;;;;;;13.00;9.60;;;13.30;93.50;;;;;;6182920;23;20017;-80
2021/09/03 03:01:33;;;;;;;12.75;8.98;;;13.30;93.50;;;;;;6181680;23;20434;-80
2021/09/03 03:03:58;;;;;;;12.85;8.65;;;13.30;93.40;;;;;;6184286;23;20023;-80
2021/09/03 03:06:24;;;;;;;11.68;8.85;;;13.30;93.40;;;;;;6184920;23;20017;-80
2021/09/03 03:08:49;;;;;;;11.25;8.20;;;13.20;93.50;;;;;;6183689;23;20009;-80
2021/09/03 03:11:15;;;;;;;13.73;8.95;;;13.20;93.30;;;;;;6184674;23;20024;-80
2021/09/03 03:13:47;;;;;;;10.93;7.75;;;13.20;93.20;;;;;;6184057;23;20064;-80
2021/09/03 03:16:14;;;;;;;12.77;8.27;;;13.10;93.20;;;;;;6183826;23;20043;-80
2021/09/03 03:18:40;;;;;;;13.00;8.75;;;13.10;93.30;;;;;;6184108;23;20464;-80
2021/09/03 03:21:06;;;;;;;12.30;7.90;;;13.10;93.50;;;;;;6184333;23;20052;-79
2021/09/03 03:23:31;;;;;;;12.65;8.48;;;13.10;93.60;;;;;;6183533;23;20021;-80
2021/09/03 03:25:57;;;;;;;11.68;8.00;;;13.00;93.60;;;;;;6184973;23;20091;-80
2021/09/03 03:28:23;;;;;;;12.13;7.38;;;13.00;93.70;;;;;;6184731;23;20044;-80
2021/09/03 03:30:49;;;;;;;10.48;6.95;;;13.00;93.70;;;;;;6183624;23;20028;-80
2021/09/03 03:33:14;;;;;;;10.93;7.03;;;13.00;93.60;;;;;;6184032;23;20025;-80
2021/09/03 03:35:40;;;;;;;10.27;7.38;;;13.00;93.70;;;;;;6184241;23;20010;-79
2021/09/03 03:38:06;;;;;;;10.02;7.05;;;13.00;93.80;;;;;;6183518;23;20024;-80
2021/09/03 03:40:32;;;;;;;10.32;6.63;;;12.90;93.80;;;;;;6184370;23;20514;-79
2021/09/03 03:42:57;;;;;;;9.32;6.38;;;12.90;93.90;;;;;;6184368;23;20052;-80
2021/09/03 03:45:23;;;;;;;9.45;7.05;;;12.80;93.80;;;;;;6183815;23;20099;-79
2021/09/03 03:47:49;;;;;;;9.45;6.75;;;12.80;93.90;;;;;;6184273;23;20024;-80
2021/09/03 03:50:14;;;;;;;9.77;6.63;;;12.80;94.00;;;;;;6183624;23;20014;-79
2021/09/03 03:52:40;;;;;;;10.73;7.25;;;12.80;93.90;;;;;;6183576;23;20104;-80
2021/09/03 03:55:07;;;;;;;9.25;6.68;;;12.80;93.90;;;;;;6184496;23;20013;-80
2021/09/03 03:57:33;;;;;;;8.60;6.00;;;12.80;94.00;;;;;;6182881;23;20108;-79
2021/09/03 03:59:58;;;;;;;11.23;6.38;;;12.70;94.10;;;;;;6186006;23;20056;-80
2021/09/03 04:02:24;;;;;;;10.07;6.97;;;12.70;94.10;;;;;;6184424;23;20097;-79
2021/09/03 04:04:49;;;;;;;9.43;6.22;;;12.70;94.40;;;;;;6183044;23;20445;-79
2021/09/03 04:07:15;;;;;;;9.27;6.05;;;12.70;94.00;;;;;;6184821;23;20021;-79
2021/09/03 04:09:40;;;;;;;9.20;6.53;;;12.60;93.90;;;;;;6184082;23;20032;-79
2021/09/03 04:12:08;;;;;;;10.02;7.00;;;12.60;93.80;;;;;;6183213;23;20092;-80
2021/09/03 04:14:33;;;;;;;9.25;6.57;;;12.60;93.90;;;;;;6183430;23;20099;-79
2021/09/03 04:16:59;;;;;;;10.43;6.75;;;12.60;93.90;;;;;;6183254;23;20052;-79
2021/09/03 04:19:25;;;;;;;10.70;7.28;;;12.60;94.00;;;;;;6182547;23;20024;-79
2021/09/03 04:21:50;;;;;;;9.32;6.70;;;12.50;94.10;;;;;;6183451;23;20024;-79
2021/09/03 04:24:16;;;;;;;10.35;7.03;;;12.50;94.10;;;;;;6184306;23;20013;-79
2021/09/03 04:26:43;;;;;;;10.48;7.40;;;12.50;93.90;;;;;;6183446;23;20017;-79
2021/09/03 04:29:08;;;;;;;10.88;7.20;;;12.50;93.80;;;;;;6184108;23;20085;-80
2021/09/03 04:31:34;;;;;;;9.60;6.85;;;12.50;93.80;;;;;;6183426;23;20017;-78
2021/09/03 04:33:59;;;;;;;10.23;7.18;;;12.50;93.90;;;;;;6183291;23;20047;-83
2021/09/03 04:36:25;;;;;;;10.90;7.07;;;12.50;93.90;;;;;;6185365;23;20013;-83
2021/09/03 04:38:51;;;;;;;10.77;7.50;;;12.50;93.70;;;;;;6185719;23;20029;-84
2021/09/03 04:41:16;;;;;;;11.93;7.95;;;12.40;93.60;;;;;;6185209;23;20453;-84
2021/09/03 04:43:42;;;;;;;11.57;7.65;;;12.40;93.70;;;;;;6183579;23;20017;-78
2021/09/03 04:46:07;;;;;;;13.60;8.80;;;12.40;93.80;;;;;;6183574;23;20471;-78
2021/09/03 04:48:33;;;;;;;12.13;7.97;;;12.40;93.90;;;;;;6184607;23;20434;-78
2021/09/03 04:50:59;;;;;;;14.20;8.50;;;12.40;93.90;;;;;;6185514;23;20025;-78
2021/09/03 04:53:24;;;;;;;14.93;8.90;;;12.30;93.70;;;;;;6183409;23;20013;-77
2021/09/03 04:55:52;;;;;;;13.65;9.10;;;12.30;93.90;;;;;;6182478;23;20606;-78
2021/09/03 04:58:18;;;;;;;14.90;9.48;;;12.30;93.90;;;;;;6185431;23;20021;-78
2021/09/03 05:00:43;;;;;;;15.27;9.65;;;12.30;94.00;;;;;;6181953;23;20389;-77
2021/09/03 05:03:09;;;;;;;14.98;9.75;;;12.30;93.90;;;;;;6183276;23;20096;-78
2021/09/03 05:05:34;;;;;;;17.15;10.18;;;12.20;93.90;;;;;;6181984;23;20438;-78
2021/09/03 05:08:00;;;;;;;15.93;10.60;;;12.20;93.90;;;;;;6182628;23;20044;-78
2021/09/03 05:10:25;;;;;;;19.10;10.60;;;12.20;93.80;;;;;;6185503;23;20016;-77
2021/09/03 05:12:51;;;;;;;16.90;10.32;;;12.20;94.00;;;;;;6182938;23;20032;-78
2021/09/03 05:15:18;;;;;;;20.55;11.10;;;12.20;94.00;;;;;;6182764;23;20020;-78
2021/09/03 05:17:48;;;;;;;17.17;10.10;;;12.20;94.10;;;;;;6183407;23;20401;-77
2021/09/03 05:20:14;;;;;;;16.35;10.10;;;12.10;94.10;;;;;;6185336;23;20390;-78
2021/09/03 05:22:39;;;;;;;16.45;10.65;;;12.10;94.20;;;;;;6210825;23;20047;-77
2021/09/03 05:25:08;;;;;;;16.63;10.40;;;12.10;94.10;;;;;;6188505;23;20021;-78
2021/09/03 05:27:34;;;;;;;15.68;10.20;;;12.10;94.00;;;;;;6188292;23;20042;-77
2021/09/03 05:29:59;;;;;;;17.35;10.98;;;12.10;94.10;;;;;;6214372;23;20021;-78
2021/09/03 05:32:25;;;;;;;18.30;10.45;;;12.10;94.20;;;;;;6188806;23;20440;-78
2021/09/03 05:34:51;;;;;;;18.02;10.63;;;12.10;94.20;;;;;;6188412;23;20020;-78
2021/09/03 05:37:16;;;;;;;16.88;10.55;;;12.10;94.20;;;;;;6187805;23;20392;-78
2021/09/03 05:39:42;;;;;;;15.38;10.40;;;12.10;94.10;;;;;;6188394;23;20021;-78
2021/09/03 05:42:07;;;;;;;15.43;10.30;;;12.10;94.20;;;;;;6188603;23;20039;-78
2021/09/03 05:44:33;;;;;;;16.35;10.02;;;12.10;94.20;;;;;;6214266;23;20017;-78
2021/09/03 05:46:59;;;;;;;15.27;9.88;;;12.10;94.30;;;;;;6215672;23;20059;-78
2021/09/03 05:49:24;;;;;;;15.32;9.60;;;12.10;94.30;;;;;;6188965;23;20024;-78
2021/09/03 05:51:50;;;;;;;13.52;9.63;;;12.00;94.10;;;;;;6214305;23;20255;-78
2021/09/03 05:54:15;;;;;;;16.42;9.05;;;12.00;93.90;;;;;;6188614;23;20024;-77
2021/09/03 05:56:41;;;;;;;13.80;9.20;;;12.00;94.00;;;;;;6187807;23;20016;-78
2021/09/03 05:59:07;;;;;;;14.23;9.52;;;12.00;93.90;;;;;;6215037;23;20016;-77
2021/09/03 06:01:33;;;;;;;15.50;9.35;;;12.00;93.70;;;;;;6188118;23;20032;-78
2021/09/03 06:03:58;;;;;;;16.48;9.43;;;12.00;93.70;;;;;;6187556;23;20024;-77
2021/09/03 06:06:24;;;;;;;13.63;9.02;;;12.00;93.70;;;;;;6188461;23;20017;-77
2021/09/03 06:08:52;;;;;;;13.48;8.60;;;12.00;93.80;;;;;;6215099;23;20070;-78
2021/09/03 06:11:21;;;;;;;13.32;8.15;;;12.00;93.80;;;;;;6187635;23;20017;-78
2021/09/03 06:13:47;;;;;;;14.10;8.40;;;12.00;93.60;;;;;;6187973;23;20020;-77
2021/09/03 06:16:13;;;;;;;12.73;8.35;;;12.00;93.70;;;;;;6215332;23;20020;-77
2021/09/03 06:18:39;;;;;;;12.10;8.07;;;12.00;93.60;;;;;;6187122;23;20028;-77
2021/09/03 06:21:04;;;;;;;12.70;8.05;;;12.00;93.50;;;;;;6183251;23;20017;-77
2021/09/03 06:23:30;;;;;;;12.73;8.00;;;12.00;93.40;;;;;;6183396;23;20055;-77
2021/09/03 06:25:56;;;;;;;12.90;8.18;;;12.00;93.30;;;;;;6184443;23;20009;-77
2021/09/03 06:28:21;;;;;;;11.95;7.35;;;12.00;93.50;;;;;;6183375;23;20096;-77
2021/09/03 06:30:47;;;;;;;13.07;8.18;;;12.00;93.40;;;;;;6182826;23;20315;-78
2021/09/03 06:33:14;;;;;;;13.77;7.97;;;12.10;93.50;;;;;;6182324;23;20017;-77
2021/09/03 06:35:40;;;;;;;14.48;8.60;;;12.10;93.70;;;;;;6184565;23;20009;-77
2021/09/03 06:38:05;;;;;;;13.18;8.60;;;12.20;93.60;;;;;;6186015;23;20484;-77
2021/09/03 06:40:31;;;;;;;12.30;8.10;;;12.20;93.50;;;;;;6183998;23;20020;-78
2021/09/03 06:42:56;;;;;;;14.05;8.20;;;12.30;93.30;;;;;;6185210;23;20071;-77
2021/09/03 06:45:22;;;;;;;13.23;8.43;;;12.40;93.20;;;;;;6186856;23;20100;-78
2021/09/03 06:47:48;;;;;;;12.48;8.32;;;12.40;93.20;;;;;;6184068;23;20020;-78
2021/09/03 06:50:14;;;;;;;13.82;8.10;;;12.40;93.30;;;;;;6185175;23;20473;-78
2021/09/03 06:52:39;;;;;;;14.13;8.38;;;12.50;93.10;;;;;;6184801;23;20377;-77
2021/09/03 06:55:06;;;;;;;12.38;7.97;;;12.60;93.00;;;;;;6184288;23;20385;-77
2021/09/03 06:57:31;;;;;;;15.35;9.95;;;12.60;92.90;;;;;;6184171;23;20017;-77
2021/09/03 06:59:57;;;;;;;13.00;8.43;;;12.70;92.70;;;;;;6184968;23;20070;-76
2021/09/03 07:02:22;;;;;;;20.40;12.57;;;12.80;92.60;;;;;;6184295;23;20017;-76
2021/09/03 07:04:48;;;;;;;19.20;11.23;;;12.90;93.10;;;;;;6186393;23;20128;-76
2021/09/03 07:07:14;;;;;;;25.13;14.80;;;13.00;93.20;;;;;;6183964;23;20430;-76
2021/09/03 07:09:39;;;;;;;25.48;14.65;;;13.10;93.90;;;;;;6184755;23;20075;-77
2021/09/03 07:12:05;;;;;;;24.35;14.30;;;13.20;94.30;;;;;;6184833;23;20076;-77
2021/09/03 07:14:31;;;;;;;26.13;15.77;;;13.40;94.40;;;;;;6183463;23;20373;-76
2021/09/03 07:16:56;;;;;;;31.65;15.43;;;13.60;94.70;;;;;;6184923;23;20075;-76
2021/09/03 07:19:22;;;;;;;30.50;14.60;;;13.70;95.00;;;;;;6184884;23;20333;-76
2021/09/03 07:21:48;;;;;;;24.55;14.65;;;13.80;95.30;;;;;;6201214;23;20333;-77
2021/09/03 07:24:13;;;;;;;18.38;10.30;;;13.90;95.20;;;;;;6190009;23;20126;-76
2021/09/03 07:26:39;;;;;;;27.83;14.90;;;14.00;94.50;;;;;;6189194;23;20079;-77
2021/09/03 07:29:05;;;;;;;24.65;13.68;;;14.20;94.50;;;;;;6188815;23;20047;-77
2021/09/03 07:31:34;;;;;;;28.75;15.70;;;14.30;94.50;;;;;;6216142;23;20055;-76
2021/09/03 07:34:00;;;;;;;24.25;13.75;;;14.40;94.50;;;;;;6189758;23;20019;-77
2021/09/03 07:36:26;;;;;;;21.00;11.75;;;14.50;94.60;;;;;;6188754;23;20341;-76
2021/09/03 07:38:52;;;;;;;25.13;12.13;;;14.60;94.10;;;;;;6189405;23;20024;-76
2021/09/03 07:41:17;;;;;;;21.67;12.63;;;14.70;93.90;;;;;;6189872;23;20126;-77
2021/09/03 07:43:43;;;;;;;22.52;12.45;;;14.80;94.00;;;;;;6214812;23;20103;-77
2021/09/03 07:46:09;;;;;;;26.38;13.70;;;14.90;93.80;;;;;;6216124;23;20017;-77
2021/09/03 07:48:34;;;;;;;24.40;11.52;;;15.00;93.80;;;;;;6189089;23;20016;-76
2021/09/03 07:51:01;;;;;;;15.32;9.32;;;15.20;93.60;;;;;;6188728;23;20017;-77
2021/09/03 07:53:26;;;;;;;26.95;12.15;;;15.30;93.00;;;;;;6189667;23;20019;-77
2021/09/03 07:55:52;;;;;;;27.13;10.43;;;15.30;93.20;;;;;;6189236;23;20048;-77
2021/09/03 07:58:17;;;;;;;21.38;10.30;;;15.40;93.20;;;;;;6215428;23;20017;-77
2021/09/03 08:00:43;;;;;;;23.60;9.52;;;15.50;93.00;;;;;;6189283;23;20013;-78
2021/09/03 08:03:09;;;;;;;23.52;10.55;;;15.50;93.10;;;;;;6216187;23;20491;-77
2021/09/03 08:05:35;;;;;;;22.02;10.95;;;15.60;92.80;;;;;;6187939;23;20329;-77
2021/09/03 08:08:05;;;;;;;21.23;10.70;;;15.70;92.90;;;;;;6189487;23;20027;-77
2021/09/03 08:10:34;;;;;;;19.73;9.48;;;15.70;92.50;;;;;;6188107;23;20470;-78
2021/09/03 08:13:01;;;;;;;25.02;10.43;;;15.80;92.40;;;;;;6189421;23;20023;-77
2021/09/03 08:15:27;;;;;;;21.20;9.32;;;15.90;92.60;;;;;;6189363;23;20013;-77
2021/09/03 08:17:52;;;;;;;20.30;8.32;;;15.90;92.40;;;;;;6187953;23;20078;-79
2021/09/03 08:20:18;;;;;;;18.83;9.07;;;15.90;92.40;;;;;;6190051;23;20035;-79
2021/09/03 08:22:47;;;;;;;18.40;8.52;;;16.00;92.30;;;;;;6183385;23;20124;-79
2021/09/03 08:25:13;;;;;;;17.92;8.50;;;16.10;92.40;;;;;;6183404;23;20067;-81
2021/09/03 08:27:38;;;;;;;25.23;9.18;;;16.10;92.30;;;;;;6184025;23;20021;-81
2021/09/03 08:30:05;;;;;;;20.20;7.55;;;16.20;92.40;;;;;;6184294;23;20327;-81
2021/09/03 08:32:30;;;;;;;20.05;7.95;;;16.20;92.20;;;;;;6183079;23;20020;-81
2021/09/03 08:34:56;;;;;;;18.48;7.85;;;16.30;92.20;;;;;;6183926;23;20013;-81
2021/09/03 08:37:22;;;;;;;19.90;7.90;;;16.40;92.10;;;;;;6183918;23;20043;-81
2021/09/03 08:39:49;;;;;;;17.48;7.28;;;16.40;92.00;;;;;;6183129;23;20013;-92
2021/09/03 08:42:15;;;;;;;18.35;7.68;;;16.40;91.80;;;;;;6183441;23;20513;-87
2021/09/03 08:44:40;;;;;;;20.10;8.43;;;16.50;91.90;;;;;;6183568;23;20013;-90
2021/09/03 08:47:08;;;;;;;20.58;7.93;;;16.50;91.70;;;;;;6183261;23;20112;-79
2021/09/03 08:49:35;;;;;;;16.05;7.70;;;16.60;91.70;;;;;;6183730;23;20442;-79
2021/09/03 08:52:00;;;;;;;21.02;8.15;;;16.60;91.60;;;;;;6183969;23;20044;-81
2021/09/03 08:54:26;;;;;;;22.25;8.02;;;16.70;91.70;;;;;;6183087;23;20458;-81
2021/09/03 08:56:52;;;;;;;20.40;8.05;;;16.70;91.70;;;;;;6183784;23;20060;-79
2021/09/03 08:59:17;;;;;;;25.77;9.48;;;16.80;91.70;;;;;;6183982;23;20083;-79
2021/09/03 09:01:43;;;;;;;22.65;8.60;;;16.80;91.50;;;;;;6181959;23;20096;-79
2021/09/03 09:04:15;;;;;;;14.98;7.78;;;16.90;91.50;;;;;;6184584;23;20052;-79
2021/09/03 09:07:01;;;;;;;17.48;8.02;;;16.90;91.50;;;;;;6183846;23;20355;-79
2021/09/03 09:09:35;;;;;;;19.02;7.80;;;16.90;91.40;;;;;;6187420;23;20017;-79
2021/09/03 09:12:06;;;;;;;24.05;8.98;;;17.00;91.40;;;;;;6187015;23;20020;-79
2021/09/03 09:14:58;;;;;;;16.80;8.27;;;17.00;91.40;;;;;;6184920;23;20016;-79
2021/09/03 09:17:43;;;;;;;19.75;8.02;;;17.10;91.40;;;;;;6184633;23;20024;-79
2021/09/03 09:20:16;;;;;;;17.13;8.15;;;17.10;91.40;;;;;;6184724;23;20032;-79
2021/09/03 09:22:59;;;;;;;23.67;8.10;;;17.20;91.40;;;;;;6183414;23;20506;-80
2021/09/03 09:25:30;;;;;;;18.70;8.32;;;17.20;91.10;;;;;;6186362;23;20017;-80
2021/09/03 09:28:22;;;;;;;22.85;8.65;;;17.30;91.20;;;;;;6183713;23;20020;-79
2021/09/03 09:30:52;;;;;;;18.33;7.82;;;17.30;91.10;;;;;;6178735;23;20024;-79
2021/09/03 09:33:20;;;;;;;16.40;6.97;;;17.40;91.30;;;;;;6185029;23;20016;-79
2021/09/03 09:35:58;;;;;;;19.00;7.95;;;17.40;91.20;;;;;;6183534;23;20053;-80
2021/09/03 09:38:26;;;;;;;16.63;7.68;;;17.40;91.20;;;;;;6184676;23;20021;-80
2021/09/03 09:40:56;;;;;;;16.13;7.60;;;17.50;91.30;;;;;;6184272;23;20017;-80
2021/09/03 09:43:29;;;;;;;16.75;8.10;;;17.50;91.30;;;;;;6185245;23;20020;-80
2021/09/03 09:46:07;;;;;;;22.98;8.40;;;17.60;91.10;;;;;;6184650;23;20017;-80
2021/09/03 09:48:51;;;;;;;16.38;8.02;;;17.60;90.80;;;;;;6183296;23;20092;-80
2021/09/03 09:51:21;;;;;;;;;;;17.60;91.00;;;;;;6186223;23;20019;-79
2021/09/03 09:54:21;;;;;;;22.42;8.85;;;17.60;90.80;;;;;;6183561;23;19927;-80
2021/09/03 09:56:49;;;;;;;26.40;9.15;;;17.70;90.80;;;;;;6182572;23;20068;-80
2021/09/03 09:59:15;;;;;;;22.38;9.38;;;17.70;90.80;;;;;;6185117;23;20462;-80
2021/09/03 10:01:43;;;;;;;25.90;11.27;;;17.70;90.90;;;;;;6183463;23;20021;-80
2021/09/03 10:04:11;;;;;;;23.23;9.75;;;17.70;90.50;;;;;;6184355;23;20412;-80
2021/09/03 10:06:39;;;;;;;21.30;9.73;;;17.80;90.50;;;;;;6183405;23;20059;-81
2021/09/03 10:09:08;;;;;;;25.02;10.30;;;17.80;90.50;;;;;;6183772;23;20013;-80
2021/09/03 10:11:36;;;;;;;21.65;10.50;;;17.80;90.60;;;;;;6183433;23;20327;-80
2021/09/03 10:14:03;;;;;;;24.48;11.55;;;17.80;90.60;;;;;;6186641;23;20349;-80
2021/09/03 10:16:28;;;;;;;22.13;10.38;;;17.90;90.60;;;;;;6187020;23;20021;-80
2021/09/03 10:18:57;;;;;;;24.33;10.25;;;17.90;90.70;;;;;;6185443;23;20025;-80
2021/09/03 10:21:26;;;;;;;17.90;9.40;;;17.90;90.50;;;;;;6192100;23;20086;-80
2021/09/03 10:24:01;;;;;;;21.13;10.13;;;18.00;90.30;;;;;;6217906;23;20025;-80
2021/09/03 10:26:30;;;;;;;20.45;10.23;;;17.90;90.00;;;;;;6191520;23;20020;-81
2021/09/03 10:29:19;;;;;;;20.80;9.20;;;17.90;90.10;;;;;;6190666;23;20013;-80
2021/09/03 10:32:10;;;;;;;17.02;9.02;;;18.00;90.30;;;;;;6189308;23;20087;-80
2021/09/03 10:34:51;;;;;;;21.98;9.57;;;18.00;90.40;;;;;;6176483;23;20016;-81
2021/09/03 10:37:23;;;;;;;19.77;9.27;;;18.00;90.20;;;;;;6190602;23;20016;-80
2021/09/03 10:40:21;;;;;;;19.63;9.90;;;18.10;90.10;;;;;;6189151;23;20031;-80
2021/09/03 10:42:51;;;;;;;18.90;9.30;;;18.10;90.00;;;;;;6165663;23;20456;-80
2021/09/03 10:45:22;;;;;;;20.42;9.55;;;18.10;89.40;;;;;;6189563;23;20017;-81
2021/09/03 10:47:51;;;;;;;17.60;9.57;;;18.10;89.70;;;;;;6189974;23;20013;-80
2021/09/03 10:50:31;;;;;;;19.02;9.35;;;18.20;90.10;;;;;;6191210;23;20020;-80
2021/09/03 10:53:02;;;;;;;24.48;10.38;;;18.20;90.20;;;;;;6189545;23;20083;-81
2021/09/03 10:55:49;;;;;;;19.63;9.05;;;18.30;90.00;;;;;;6190359;23;20027;-80
2021/09/03 10:58:37;;;;;;;17.17;8.90;;;18.30;90.20;;;;;;6216819;23;20099;-81
2021/09/03 11:01:11;;;;;;;17.63;8.27;;;18.40;90.30;;;;;;6215748;23;20028;-80
2021/09/03 11:03:44;;;;;;;22.00;9.90;;;18.40;90.40;;;;;;6189876;23;20023;-80
2021/09/03 11:06:26;;;;;;;21.35;10.50;;;18.50;90.10;;;;;;6190090;23;20094;-80
2021/09/03 11:08:59;;;;;;;18.33;9.60;;;18.50;90.00;;;;;;6165012;23;20021;-81
2021/09/03 11:11:36;;;;;;;17.10;9.05;;;18.50;90.10;;;;;;6190171;23;20066;-80
2021/09/03 11:14:08;;;;;;;22.77;9.63;;;18.60;90.10;;;;;;6189454;23;20096;-80
2021/09/03 11:16:45;;;;;;;14.93;8.70;;;18.60;89.80;;;;;;6192064;23;20048;-92
2021/09/03 11:19:47;;;;;;;19.08;8.68;;;18.70;90.10;;;;;;6192717;23;20017;-91
2021/09/03 11:22:17;;;;;;;20.80;10.18;;;18.70;89.90;;;;;;6073282;23;20018;-91
2021/09/03 11:30:50;;;;;;;16.42;7.93;;;18.80;90.00;;;;;;6162088;23;20399;-82
2021/09/03 11:33:16;;;;;;;13.63;8.02;;;18.90;90.00;;;;;;6161620;23;20327;-80
2021/09/03 11:35:41;;;;;;;16.95;9.13;;;18.90;90.00;;;;;;6159481;23;20020;-80
2021/09/03 11:38:13;;;;;;;16.55;9.13;;;19.00;89.50;;;;;;6160551;23;20461;-80
2021/09/03 11:40:39;;;;;;;16.42;8.20;;;19.00;88.30;;;;;;6160109;23;20013;-80
2021/09/03 11:43:06;;;;;;;14.82;7.80;;;19.10;88.60;;;;;;6159852;23;20409;-79
2021/09/03 11:45:32;;;;;;;16.95;8.55;;;19.20;89.20;;;;;;6186811;23;20095;-79
2021/09/03 11:48:04;;;;;;;12.82;7.82;;;19.20;88.80;;;;;;6186504;23;20449;-78
2021/09/03 11:50:33;;;;;;;16.80;8.90;;;19.20;88.70;;;;;;6159866;23;20040;-78
2021/09/03 11:53:02;;;;;;;13.93;8.07;;;19.30;88.30;;;;;;6160097;23;20017;-79
2021/09/03 11:55:33;;;;;;;13.13;7.97;;;19.30;88.30;;;;;;6158696;23;20097;-79
2021/09/03 11:58:07;;;;;;;15.65;8.77;;;19.30;88.50;;;;;;6160006;23;20013;-78
2021/09/03 12:00:44;;;;;;;17.58;9.00;;;19.30;87.50;;;;;;6185888;23;20315;-78
2021/09/03 12:03:21;;;;;;;15.15;8.32;;;19.40;86.10;;;;;;6185306;23;20437;-79
2021/09/03 12:05:52;;;;;;;17.30;8.48;;;19.30;84.60;;;;;;6186041;23;20021;-78
2021/09/03 12:08:23;;;;;;;16.98;8.75;;;19.40;85.40;;;;;;6159646;23;20055;-79
2021/09/03 12:10:49;;;;;;;14.32;8.35;;;19.40;85.60;;;;;;6158460;23;20086;-80
2021/09/03 12:13:23;;;;;;;13.35;8.40;;;19.40;85.60;;;;;;6159720;23;20057;-79
2021/09/03 12:16:02;;;;;;;14.73;7.97;;;19.50;87.10;;;;;;6185858;23;20021;-79
2021/09/03 12:18:34;;;;;;;15.38;8.35;;;19.50;86.80;;;;;;6158824;23;20044;-78
2021/09/03 12:21:18;;;;;;;13.82;7.70;;;19.60;85.90;;;;;;6159764;23;20009;-78
2021/09/03 12:23:56;;;;;;;14.32;8.20;;;19.60;85.20;;;;;;6184855;23;20516;-79
2021/09/03 12:26:50;;;;;;;15.75;8.63;;;19.70;86.40;;;;;;6159602;23;20338;-79
2021/09/03 12:29:27;;;;;;;13.90;7.80;;;19.70;86.30;;;;;;6180023;23;20032;-79
2021/09/03 12:31:59;;;;;;;15.98;7.72;;;19.80;87.00;;;;;;6184550;23;20017;-79
2021/09/03 12:34:26;;;;;;;14.32;7.90;;;19.80;87.10;;;;;;6184037;23;20017;-79
2021/09/03 12:36:58;;;;;;;15.13;8.02;;;19.90;86.80;;;;;;6185654;23;20059;-79
2021/09/03 12:39:24;;;;;;;14.15;7.68;;;20.00;87.10;;;;;;6183410;23;20052;-79
2021/09/03 12:41:49;;;;;;;14.73;7.60;;;20.00;86.60;;;;;;6159220;23;20017;-79
2021/09/03 12:44:23;;;;;;;12.40;6.82;;;20.10;87.10;;;;;;6184215;23;20028;-79